Time;durP1;ratioP1;P1;durP2;ratioP2;P2;SDS_P1;SDS_P2;PMS_P1;PMS_P2;Temp;Humidity;BMP_temperature;BMP_pressure;BME280_temperature;BME280_humidity;BME280_pressure;Samples;Min_cycle;Max_cycle;Signal;HPM_P1;HPM_P2
2023/12/27 00:02:04;;;;;;;10.87;3.80;;;7.90;99.90;;;;;;5042826;28;20185;-71
2023/12/27 00:04:30;;;;;;;6.17;3.50;;;7.80;99.90;;;;;;5041943;28;20205;-71
2023/12/27 00:06:59;;;;;;;5.90;4.10;;;7.80;99.90;;;;;;5042106;28;21450;-71
2023/12/27 00:09:25;;;;;;;8.63;4.23;;;7.80;99.90;;;;;;5042018;28;20225;-72
2023/12/27 00:11:50;;;;;;;8.03;4.53;;;7.80;99.90;;;;;;5039774;28;20465;-71
2023/12/27 00:14:16;;;;;;;9.40;4.70;;;7.70;99.90;;;;;;5042653;28;20186;-70
2023/12/27 00:16:42;;;;;;;8.10;4.23;;;7.70;99.90;;;;;;5019156;28;20650;-70
2023/12/27 00:19:07;;;;;;;9.20;3.93;;;7.70;99.90;;;;;;5043323;28;20190;-70
2023/12/27 00:21:33;;;;;;;6.40;4.73;;;7.70;99.90;;;;;;5041251;28;20268;-69
2023/12/27 00:23:59;;;;;;;7.03;3.70;;;7.70;99.90;;;;;;5043088;28;20201;-71
2023/12/27 00:26:24;;;;;;;7.73;3.63;;;7.70;99.90;;;;;;5041412;28;20745;-71
2023/12/27 00:28:50;;;;;;;5.50;3.97;;;7.70;99.90;;;;;;5041551;28;20178;-72
2023/12/27 00:31:16;;;;;;;9.30;4.17;;;7.60;99.90;;;;;;5042394;28;20200;-71
2023/12/27 00:33:41;;;;;;;8.93;3.93;;;7.60;99.90;;;;;;5040066;28;20664;-71
2023/12/27 00:36:10;;;;;;;4.50;3.33;;;7.60;99.90;;;;;;5042595;28;20696;-71
2023/12/27 00:38:36;;;;;;;9.87;4.30;;;7.60;99.90;;;;;;5041239;28;20711;-70
2023/12/27 00:41:03;;;;;;;4.67;3.30;;;7.50;99.90;;;;;;5041465;28;20424;-71
2023/12/27 00:43:29;;;;;;;6.80;3.70;;;7.50;99.90;;;;;;5038964;28;20895;-71
2023/12/27 00:45:55;;;;;;;7.20;4.03;;;7.50;99.90;;;;;;5042060;28;20523;-72
2023/12/27 00:48:20;;;;;;;6.80;4.30;;;7.50;99.90;;;;;;5041420;28;20432;-70
2023/12/27 00:50:46;;;;;;;8.63;3.40;;;7.50;99.90;;;;;;5041571;28;20181;-71
2023/12/27 00:53:11;;;;;;;7.30;3.93;;;7.50;99.90;;;;;;5049798;28;20216;-71
2023/12/27 00:55:37;;;;;;;6.70;3.23;;;7.50;99.90;;;;;;5038704;28;20209;-71
2023/12/27 00:58:03;;;;;;;7.30;4.07;;;7.50;99.90;;;;;;5040629;28;20265;-72
2023/12/27 01:00:29;;;;;;;8.10;3.90;;;7.50;99.90;;;;;;5040538;28;20840;-72
2023/12/27 01:02:54;;;;;;;11.73;4.80;;;7.50;99.90;;;;;;5042288;28;20549;-71
2023/12/27 01:05:20;;;;;;;6.47;4.07;;;7.50;99.90;;;;;;5040500;28;20181;-71
2023/12/27 01:07:46;;;;;;;9.73;4.27;;;7.50;99.90;;;;;;5038720;28;20586;-72
2023/12/27 01:10:11;;;;;;;8.00;3.60;;;7.50;99.90;;;;;;5032170;28;20200;-70
2023/12/27 01:12:37;;;;;;;8.00;4.23;;;7.50;99.90;;;;;;5038698;28;20242;-72
2023/12/27 01:15:03;;;;;;;9.60;3.93;;;7.50;99.90;;;;;;5041999;28;20221;-70
2023/12/27 01:17:29;;;;;;;6.23;3.37;;;7.40;99.90;;;;;;5037041;28;20620;-71
2023/12/27 01:19:55;;;;;;;6.20;3.87;;;7.40;99.90;;;;;;5041466;28;20465;-72
2023/12/27 01:22:20;;;;;;;11.63;4.33;;;7.40;99.90;;;;;;5039600;28;20208;-70
2023/12/27 01:24:46;;;;;;;8.70;3.97;;;7.40;99.90;;;;;;5042149;28;20182;-72
2023/12/27 01:27:11;;;;;;;7.50;4.33;;;7.40;99.90;;;;;;5040681;28;20192;-70
2023/12/27 01:29:37;;;;;;;12.60;4.10;;;7.40;99.90;;;;;;5040965;28;20190;-71
2023/12/27 01:32:03;;;;;;;8.30;3.87;;;7.40;99.90;;;;;;5039428;28;20208;-70
2023/12/27 01:34:29;;;;;;;8.73;4.20;;;7.40;99.90;;;;;;5040068;28;20628;-70
2023/12/27 01:36:54;;;;;;;11.73;5.60;;;7.40;99.90;;;;;;5042074;28;20982;-72
2023/12/27 01:39:20;;;;;;;5.57;4.10;;;7.40;99.90;;;;;;5041926;28;20656;-72
2023/12/27 01:41:46;;;;;;;9.33;4.40;;;7.30;99.90;;;;;;5041549;28;20268;-71
2023/12/27 01:44:11;;;;;;;10.90;5.67;;;7.30;99.90;;;;;;5041948;28;20186;-72
2023/12/27 01:46:37;;;;;;;9.00;4.40;;;7.30;99.90;;;;;;5033488;28;20204;-70
2023/12/27 01:49:03;;;;;;;9.37;5.00;;;7.20;99.90;;;;;;5043293;28;20341;-71
2023/12/27 01:51:30;;;;;;;9.23;3.67;;;7.20;99.90;;;;;;5041515;28;20205;-73
2023/12/27 01:54:00;;;;;;;12.07;6.47;;;7.20;99.90;;;;;;5043028;28;20181;-71
2023/12/27 01:56:26;;;;;;;7.90;4.40;;;7.10;99.90;;;;;;5041162;28;20468;-71
2023/12/27 01:58:52;;;;;;;8.93;3.80;;;7.10;99.90;;;;;;5042534;28;20420;-71
2023/12/27 02:01:18;;;;;;;14.73;4.90;;;7.10;99.90;;;;;;5038093;28;20451;-71
2023/12/27 02:03:43;;;;;;;7.03;3.97;;;7.10;99.90;;;;;;5042023;28;20420;-72
2023/12/27 02:06:10;;;;;;;6.40;3.97;;;7.10;99.90;;;;;;5040934;28;20201;-70
2023/12/27 02:08:36;;;;;;;9.40;4.80;;;7.10;99.90;;;;;;5042461;28;20652;-71
2023/12/27 02:11:02;;;;;;;11.10;4.90;;;7.10;99.90;;;;;;5042714;28;20429;-71
2023/12/27 02:13:28;;;;;;;6.80;4.27;;;7.00;99.90;;;;;;5039854;28;20965;-70
2023/12/27 02:15:54;;;;;;;10.27;4.33;;;7.00;99.90;;;;;;5042113;28;20468;-71
2023/12/27 02:18:20;;;;;;;8.37;4.77;;;7.00;99.90;;;;;;5039001;28;20593;-72
2023/12/27 02:20:47;;;;;;;8.50;3.67;;;7.00;99.90;;;;;;5041419;28;20431;-70
2023/12/27 02:23:17;;;;;;;12.20;5.40;;;6.90;99.90;;;;;;5039874;28;20478;-71
2023/12/27 02:25:44;;;;;;;6.57;4.10;;;6.90;99.90;;;;;;5049251;28;20447;-71
2023/12/27 02:28:10;;;;;;;10.10;4.40;;;6.80;99.90;;;;;;5042008;28;20433;-70
2023/12/27 02:30:36;;;;;;;10.20;4.53;;;6.90;99.90;;;;;;5042074;28;20490;-72
2023/12/27 02:33:02;;;;;;;7.33;4.83;;;6.80;99.90;;;;;;5039967;28;20600;-72
2023/12/27 02:35:28;;;;;;;10.17;5.37;;;6.80;99.90;;;;;;5040436;28;20564;-71
2023/12/27 02:37:54;;;;;;;10.13;4.80;;;6.90;99.90;;;;;;5040864;28;20969;-71
2023/12/27 02:40:19;;;;;;;12.97;5.60;;;6.90;99.90;;;;;;5040833;28;20707;-70
2023/12/27 02:42:46;;;;;;;10.90;5.50;;;6.90;99.90;;;;;;5041647;28;20433;-70
2023/12/27 02:45:12;;;;;;;10.40;5.30;;;6.80;99.90;;;;;;5040868;28;20585;-72
2023/12/27 02:47:38;;;;;;;9.70;4.70;;;6.90;99.90;;;;;;5042007;28;20425;-71
2023/12/27 02:50:04;;;;;;;13.10;5.80;;;6.90;99.90;;;;;;5041229;28;20297;-70
2023/12/27 02:52:29;;;;;;;12.47;6.00;;;6.80;99.90;;;;;;5040864;28;20186;-72
2023/12/27 02:54:55;;;;;;;11.37;6.17;;;6.80;99.90;;;;;;5041852;28;20479;-72
2023/12/27 02:57:21;;;;;;;12.93;7.13;;;6.80;99.90;;;;;;5040541;28;20271;-72
2023/12/27 02:59:47;;;;;;;11.73;5.80;;;6.80;99.90;;;;;;5041346;28;20243;-70
2023/12/27 03:02:13;;;;;;;11.50;5.73;;;6.80;99.90;;;;;;5040591;28;21209;-70
2023/12/27 03:04:38;;;;;;;11.10;5.50;;;6.80;99.90;;;;;;5040529;28;20239;-70
2023/12/27 03:07:04;;;;;;;13.33;6.17;;;6.80;99.90;;;;;;5039481;28;20194;-70
2023/12/27 03:09:30;;;;;;;11.07;6.40;;;6.80;99.90;;;;;;5040892;28;20270;-71
2023/12/27 03:11:57;;;;;;;10.30;5.63;;;6.80;99.90;;;;;;5040719;28;20263;-72
2023/12/27 03:14:22;;;;;;;11.60;8.17;;;6.80;99.90;;;;;;5037452;28;21378;-70
2023/12/27 03:16:48;;;;;;;13.20;6.40;;;6.80;99.90;;;;;;5041236;28;20432;-71
2023/12/27 03:19:13;;;;;;;9.70;5.50;;;6.80;99.90;;;;;;5038665;28;20691;-70
2023/12/27 03:21:39;;;;;;;12.60;6.53;;;6.80;99.90;;;;;;5039704;28;20194;-71
2023/12/27 03:24:05;;;;;;;15.27;6.97;;;6.80;99.90;;;;;;5041164;28;20781;-70
2023/12/27 03:26:31;;;;;;;11.27;6.20;;;6.70;99.90;;;;;;5040172;28;20645;-71
2023/12/27 03:28:57;;;;;;;10.67;6.27;;;6.70;99.90;;;;;;5042188;28;20575;-71
2023/12/27 03:31:28;;;;;;;10.30;5.53;;;6.70;99.90;;;;;;5040680;28;20424;-70
2023/12/27 03:33:55;;;;;;;9.30;5.33;;;6.70;99.90;;;;;;5042802;28;20212;-72
2023/12/27 03:36:21;;;;;;;10.00;6.23;;;6.70;99.90;;;;;;5043611;28;20556;-70
2023/12/27 03:38:47;;;;;;;15.60;6.33;;;6.60;99.90;;;;;;5045355;28;20432;-71
2023/12/27 03:41:12;;;;;;;14.97;6.00;;;6.60;99.90;;;;;;5043794;28;20243;-71
2023/12/27 03:43:38;;;;;;;17.33;6.87;;;6.60;99.90;;;;;;5045038;28;20186;-70
2023/12/27 03:46:04;;;;;;;9.87;6.60;;;6.60;99.90;;;;;;5042884;28;20546;-71
2023/12/27 03:48:29;;;;;;;12.90;7.13;;;6.60;99.90;;;;;;5044565;28;20247;-71
2023/12/27 03:50:55;;;;;;;14.90;6.40;;;6.60;99.90;;;;;;5045433;28;20194;-70
2023/12/27 03:53:21;;;;;;;14.80;6.70;;;6.60;99.90;;;;;;5041617;28;20182;-70
2023/12/27 03:55:46;;;;;;;11.97;6.57;;;6.60;99.90;;;;;;5044283;28;20218;-69
2023/12/27 03:58:12;;;;;;;13.07;6.63;;;6.60;99.90;;;;;;5043706;28;20277;-72
2023/12/27 04:00:38;;;;;;;16.83;6.50;;;6.60;99.90;;;;;;5044090;28;20578;-69
2023/12/27 04:03:03;;;;;;;14.93;7.27;;;6.60;99.90;;;;;;5042951;28;20189;-71
2023/12/27 04:05:29;;;;;;;13.40;6.27;;;6.60;99.90;;;;;;5042637;28;20190;-70
2023/12/27 04:07:55;;;;;;;12.93;5.80;;;6.50;99.90;;;;;;5035415;28;20194;-71
2023/12/27 04:10:20;;;;;;;15.10;6.00;;;6.50;99.90;;;;;;5042212;28;20273;-70
2023/12/27 04:12:46;;;;;;;11.83;6.90;;;6.50;99.90;;;;;;5044597;28;20192;-71
2023/12/27 04:15:12;;;;;;;17.43;7.20;;;6.50;99.90;;;;;;5043543;28;20232;-72
2023/12/27 04:17:39;;;;;;;9.73;6.70;;;6.50;99.90;;;;;;5052351;28;20261;-71
2023/12/27 04:20:06;;;;;;;9.77;6.27;;;6.50;99.90;;;;;;5043083;28;20193;-70
2023/12/27 04:22:31;;;;;;;11.83;5.80;;;6.50;99.90;;;;;;5043398;28;20495;-70
2023/12/27 04:24:57;;;;;;;8.30;5.97;;;6.50;99.90;;;;;;5036197;28;20476;-71
2023/12/27 04:27:23;;;;;;;10.10;6.00;;;6.50;99.90;;;;;;5042821;28;20181;-70
2023/12/27 04:29:48;;;;;;;13.23;6.20;;;6.50;99.90;;;;;;5044049;28;20193;-69
2023/12/27 04:32:14;;;;;;;14.17;6.00;;;6.50;99.90;;;;;;5041413;28;20269;-70
2023/12/27 04:34:39;;;;;;;10.90;5.57;;;6.50;99.90;;;;;;5043728;28;20687;-73
2023/12/27 04:37:05;;;;;;;14.13;6.07;;;6.50;99.90;;;;;;5042981;28;20671;-71
2023/12/27 04:39:31;;;;;;;8.93;6.10;;;6.50;99.90;;;;;;5040889;28;20684;-71
2023/12/27 04:41:57;;;;;;;8.23;5.60;;;6.50;99.90;;;;;;5042017;28;20551;-72
2023/12/27 04:44:23;;;;;;;12.47;5.90;;;6.50;99.90;;;;;;5041246;28;20424;-72
2023/12/27 04:46:48;;;;;;;10.13;5.80;;;6.50;99.90;;;;;;5043299;28;20261;-71
2023/12/27 04:49:14;;;;;;;13.90;5.93;;;6.50;99.90;;;;;;5042605;28;20189;-70
2023/12/27 04:51:39;;;;;;;12.27;5.70;;;6.60;99.90;;;;;;5043620;28;20221;-71
2023/12/27 04:54:05;;;;;;;13.53;5.27;;;6.60;99.90;;;;;;5042031;28;20201;-70
2023/12/27 04:56:31;;;;;;;11.90;5.70;;;6.60;99.90;;;;;;5042388;28;20759;-70
2023/12/27 04:58:56;;;;;;;12.13;4.87;;;6.60;99.90;;;;;;5043328;28;20213;-70
2023/12/27 05:01:22;;;;;;;8.33;5.90;;;6.60;99.90;;;;;;5042814;28;20185;-70
2023/12/27 05:03:50;;;;;;;8.47;5.30;;;6.60;99.90;;;;;;5042708;28;20256;-71
2023/12/27 05:06:16;;;;;;;10.73;5.43;;;6.60;99.90;;;;;;5041052;28;20206;-71
2023/12/27 05:08:41;;;;;;;12.37;5.20;;;6.60;99.90;;;;;;5042666;28;20425;-71
2023/12/27 05:11:18;;;;;;;10.77;4.57;;;6.50;99.90;;;;;;5042296;28;20189;-70
2023/12/27 05:13:44;;;;;;;8.63;4.70;;;6.60;99.90;;;;;;5041890;28;20474;-71
2023/12/27 05:16:15;;;;;;;12.27;4.73;;;6.50;99.90;;;;;;5032740;28;20500;-71
2023/12/27 05:18:41;;;;;;;11.37;4.57;;;6.50;99.90;;;;;;5039233;28;20471;-71
2023/12/27 05:21:08;;;;;;;9.43;5.00;;;6.50;99.90;;;;;;5041770;28;20478;-69
2023/12/27 05:23:34;;;;;;;9.93;5.10;;;6.60;99.90;;;;;;5041631;28;20429;-70
2023/12/27 05:26:00;;;;;;;10.70;5.27;;;6.60;99.90;;;;;;5039148;28;20489;-72
2023/12/27 05:28:26;;;;;;;13.90;5.73;;;6.50;99.90;;;;;;5041829;28;20424;-70
2023/12/27 05:30:52;;;;;;;10.27;5.50;;;6.50;99.90;;;;;;5041842;28;20436;-71
2023/12/27 05:33:18;;;;;;;7.27;4.97;;;6.50;99.90;;;;;;5042381;28;20199;-69
2023/12/27 05:35:43;;;;;;;13.90;4.57;;;6.50;99.90;;;;;;5039596;28;20580;-71
2023/12/27 05:38:09;;;;;;;12.70;4.60;;;6.50;99.90;;;;;;5041920;28;20189;-70
2023/12/27 05:40:35;;;;;;;7.17;4.17;;;6.50;99.90;;;;;;5040471;28;20181;-71
2023/12/27 05:43:00;;;;;;;10.57;4.27;;;6.60;99.90;;;;;;5039754;28;20194;-70
2023/12/27 05:45:26;;;;;;;10.60;4.43;;;6.50;99.90;;;;;;5038168;28;20272;-70
2023/12/27 05:47:52;;;;;;;11.20;4.60;;;6.50;99.90;;;;;;5041473;28;20856;-71
2023/12/27 05:50:18;;;;;;;12.00;4.70;;;6.60;99.90;;;;;;5041035;28;21309;-70
2023/12/27 05:52:44;;;;;;;8.80;3.80;;;6.60;99.90;;;;;;5042266;28;20200;-71
2023/12/27 05:55:09;;;;;;;10.80;4.53;;;6.60;99.90;;;;;;5040872;28;20464;-71
2023/12/27 05:57:35;;;;;;;8.10;3.97;;;6.60;99.90;;;;;;5040423;28;20182;-71
2023/12/27 06:00:01;;;;;;;11.93;4.40;;;6.60;99.90;;;;;;5041458;28;20962;-70
2023/12/27 06:02:27;;;;;;;8.00;3.60;;;6.60;99.90;;;;;;5039496;28;20866;-72
2023/12/27 06:04:52;;;;;;;7.33;3.83;;;6.70;99.90;;;;;;5041809;28;20519;-72
2023/12/27 06:07:18;;;;;;;11.10;4.10;;;6.70;99.90;;;;;;5040471;28;20547;-71
2023/12/27 06:09:44;;;;;;;9.13;3.70;;;6.60;99.90;;;;;;5036132;28;20284;-70
2023/12/27 06:12:09;;;;;;;7.07;3.57;;;6.60;99.90;;;;;;5041582;28;20193;-69
2023/12/27 06:14:35;;;;;;;12.00;4.07;;;6.70;99.90;;;;;;5039349;28;20224;-72
2023/12/27 06:17:01;;;;;;;7.63;3.60;;;6.70;99.90;;;;;;5037929;28;20193;-71
2023/12/27 06:19:35;;;;;;;7.50;3.63;;;6.70;99.90;;;;;;5039024;28;20432;-70
2023/12/27 06:22:01;;;;;;;6.90;3.70;;;6.70;99.90;;;;;;5039122;28;20432;-71
2023/12/27 06:24:26;;;;;;;7.03;3.47;;;6.70;99.90;;;;;;5038604;28;20964;-72
2023/12/27 06:26:52;;;;;;;8.83;4.10;;;6.70;99.90;;;;;;5038466;28;20216;-71
2023/12/27 06:29:18;;;;;;;11.03;3.27;;;6.70;99.90;;;;;;5038592;28;20828;-70
2023/12/27 06:31:44;;;;;;;7.83;3.73;;;6.80;99.90;;;;;;5030923;28;20199;-72
2023/12/27 06:34:10;;;;;;;6.37;3.40;;;6.70;99.90;;;;;;5038708;28;20450;-72
2023/12/27 06:36:35;;;;;;;5.70;3.50;;;6.70;99.90;;;;;;5038318;28;20221;-71
2023/12/27 06:39:01;;;;;;;7.07;3.50;;;6.80;99.90;;;;;;5038063;28;20211;-72
2023/12/27 06:41:27;;;;;;;7.67;3.67;;;6.80;99.90;;;;;;5038490;28;20428;-70
2023/12/27 06:43:53;;;;;;;7.33;3.30;;;6.80;99.90;;;;;;5039176;28;20528;-71
2023/12/27 06:46:19;;;;;;;8.50;3.87;;;6.80;99.90;;;;;;5037899;28;20435;-71
2023/12/27 06:48:45;;;;;;;5.80;3.60;;;6.80;99.90;;;;;;5039022;28;20201;-71
2023/12/27 06:51:12;;;;;;;5.40;3.07;;;6.80;99.90;;;;;;5038512;28;20247;-71
2023/12/27 06:53:39;;;;;;;6.60;3.80;;;6.80;99.90;;;;;;5038432;28;20178;-71
2023/12/27 06:56:05;;;;;;;7.30;2.90;;;6.80;99.90;;;;;;5038078;28;20471;-71
2023/12/27 06:58:31;;;;;;;9.20;3.90;;;6.80;99.90;;;;;;5033719;28;20204;-71
2023/12/27 07:00:57;;;;;;;3.93;3.17;;;6.80;99.90;;;;;;5037764;28;20493;-71
2023/12/27 07:03:24;;;;;;;6.30;3.37;;;6.80;99.90;;;;;;5038027;28;20186;-70
2023/12/27 07:05:51;;;;;;;5.77;3.50;;;6.80;99.90;;;;;;5028925;28;20516;-71
2023/12/27 07:08:16;;;;;;;4.73;3.00;;;6.90;99.90;;;;;;5035970;28;20475;-72
2023/12/27 07:10:42;;;;;;;9.70;4.33;;;6.80;99.90;;;;;;5035764;28;20194;-70
2023/12/27 07:13:08;;;;;;;9.00;3.80;;;6.90;99.90;;;;;;5048727;28;20181;-71
2023/12/27 07:15:34;;;;;;;8.20;3.40;;;6.90;99.90;;;;;;5035289;28;20505;-72
2023/12/27 07:18:00;;;;;;;7.00;3.43;;;6.90;99.90;;;;;;5041891;28;20198;-72
2023/12/27 07:20:26;;;;;;;5.03;3.50;;;7.00;99.90;;;;;;5039091;28;20507;-70
2023/12/27 07:22:52;;;;;;;4.97;3.43;;;6.90;99.90;;;;;;5036512;28;20201;-71
2023/12/27 07:25:17;;;;;;;6.60;4.00;;;6.90;99.90;;;;;;5040430;28;20182;-71
2023/12/27 07:27:43;;;;;;;9.67;4.20;;;7.00;99.90;;;;;;5041572;28;20675;-71
2023/12/27 07:30:09;;;;;;;5.73;3.47;;;7.00;99.90;;;;;;5041610;28;20189;-72
2023/12/27 07:32:35;;;;;;;5.50;3.50;;;7.00;99.90;;;;;;5038037;28;20197;-71
2023/12/27 07:35:00;;;;;;;9.63;4.80;;;7.00;99.90;;;;;;5040035;28;21274;-75
2023/12/27 07:37:27;;;;;;;4.23;3.17;;;7.10;99.90;;;;;;5034961;28;20194;-72
2023/12/27 07:39:53;;;;;;;7.83;4.37;;;7.10;99.90;;;;;;5039318;28;20575;-70
2023/12/27 07:42:19;;;;;;;5.17;3.90;;;7.10;99.90;;;;;;5039630;28;20430;-72
2023/12/27 07:44:45;;;;;;;9.90;4.27;;;7.10;99.90;;;;;;5036275;28;20912;-72
2023/12/27 07:47:10;;;;;;;6.80;3.97;;;7.10;99.90;;;;;;5034965;28;20424;-72
2023/12/27 07:49:36;;;;;;;7.80;3.93;;;7.10;99.90;;;;;;5037377;28;21052;-71
2023/12/27 07:52:02;;;;;;;6.00;3.97;;;7.10;99.90;;;;;;5038434;28;20827;-73
2023/12/27 07:54:28;;;;;;;7.60;4.50;;;7.10;99.90;;;;;;5039417;28;20177;-72
2023/12/27 07:56:54;;;;;;;12.37;4.27;;;7.20;99.90;;;;;;5048434;28;20475;-71
2023/12/27 07:59:19;;;;;;;9.77;4.97;;;7.20;99.90;;;;;;5040371;28;20190;-72
2023/12/27 08:01:45;;;;;;;8.10;4.13;;;7.20;99.90;;;;;;5040713;28;20182;-71
2023/12/27 08:04:11;;;;;;;7.23;4.40;;;7.30;99.90;;;;;;5042080;28;20188;-74
2023/12/27 08:06:37;;;;;;;8.83;4.10;;;7.30;99.90;;;;;;5037191;28;20440;-73
2023/12/27 08:09:03;;;;;;;9.00;4.30;;;7.30;99.90;;;;;;5037658;28;20440;-72
2023/12/27 08:11:29;;;;;;;6.60;3.80;;;7.30;99.90;;;;;;5039425;28;20193;-72
2023/12/27 08:13:55;;;;;;;6.73;4.00;;;7.40;99.90;;;;;;5039516;28;20459;-71
2023/12/27 08:16:21;;;;;;;6.73;4.40;;;7.40;99.90;;;;;;5037495;28;20483;-71
2023/12/27 08:18:47;;;;;;;8.17;3.90;;;7.40;99.90;;;;;;5031781;28;20519;-71
2023/12/27 08:21:13;;;;;;;6.07;4.00;;;7.50;99.90;;;;;;5036968;28;20827;-72
2023/12/27 08:23:38;;;;;;;7.27;4.23;;;7.50;99.90;;;;;;5047452;28;20423;-73
2023/12/27 08:26:06;;;;;;;9.07;4.03;;;7.50;99.90;;;;;;5040062;28;20531;-73
2023/12/27 08:28:36;;;;;;;7.20;4.27;;;7.60;99.90;;;;;;5035998;28;20194;-72
2023/12/27 08:31:04;;;;;;;6.90;3.67;;;7.60;99.90;;;;;;5040275;28;20451;-71
2023/12/27 08:33:31;;;;;;;5.20;3.57;;;7.60;99.90;;;;;;5038873;28;20463;-71
2023/12/27 08:35:57;;;;;;;4.53;3.00;;;7.70;99.90;;;;;;5037881;28;20479;-70
2023/12/27 08:38:24;;;;;;;4.80;3.10;;;7.70;99.90;;;;;;5039347;28;20444;-74
2023/12/27 08:40:50;;;;;;;8.07;3.80;;;7.70;99.90;;;;;;5039381;28;20429;-70
2023/12/27 08:43:18;;;;;;;8.90;3.43;;;7.80;99.90;;;;;;5040721;28;20485;-71
2023/12/27 08:45:45;;;;;;;6.47;3.20;;;7.80;99.90;;;;;;5037994;28;20182;-73
2023/12/27 08:48:11;;;;;;;6.30;3.30;;;7.80;99.90;;;;;;5040624;28;20440;-72
2023/12/27 08:50:38;;;;;;;7.80;3.17;;;7.80;99.90;;;;;;5029431;28;20435;-72
2023/12/27 08:53:04;;;;;;;4.03;2.73;;;7.80;99.90;;;;;;5039134;28;20428;-71
2023/12/27 08:55:30;;;;;;;6.67;3.03;;;7.90;99.90;;;;;;5038681;28;20482;-71
2023/12/27 08:57:55;;;;;;;5.60;2.67;;;7.90;99.90;;;;;;5038718;28;20428;-72
2023/12/27 09:00:21;;;;;;;4.93;3.73;;;7.90;99.90;;;;;;5038946;28;20182;-73
2023/12/27 09:02:47;;;;;;;7.20;2.70;;;7.90;99.90;;;;;;5038932;28;20193;-71
2023/12/27 09:05:13;;;;;;;7.30;3.30;;;7.90;99.90;;;;;;5037827;28;20213;-71
2023/12/27 09:07:39;;;;;;;4.53;3.20;;;8.00;99.90;;;;;;5037589;28;21083;-72
2023/12/27 09:10:05;;;;;;;6.33;3.30;;;8.00;99.90;;;;;;5038600;28;20320;-73
2023/12/27 09:12:30;;;;;;;4.10;2.57;;;7.90;99.90;;;;;;5039083;28;20182;-72
2023/12/27 09:14:57;;;;;;;4.83;3.13;;;8.00;99.90;;;;;;5038788;28;20472;-70
2023/12/27 09:17:23;;;;;;;6.57;3.10;;;8.00;99.90;;;;;;5037687;28;20192;-73
2023/12/27 09:19:49;;;;;;;7.80;2.93;;;8.00;99.90;;;;;;5037934;28;20516;-70
2023/12/27 09:22:15;;;;;;;4.07;3.60;;;8.00;99.90;;;;;;5039211;28;20852;-72
2023/12/27 09:24:44;;;;;;;3.37;3.03;;;8.00;99.90;;;;;;5038548;28;20428;-74
2023/12/27 09:27:13;;;;;;;4.47;2.90;;;8.00;99.90;;;;;;5038157;28;21019;-71
2023/12/27 09:29:39;;;;;;;7.67;3.40;;;8.00;99.90;;;;;;5038249;28;20435;-71
2023/12/27 09:32:05;;;;;;;4.50;2.70;;;8.00;99.90;;;;;;5039755;28;20436;-72
2023/12/27 09:34:31;;;;;;;3.23;2.90;;;8.00;99.90;;;;;;5038087;28;20237;-73
2023/12/27 09:36:56;;;;;;;5.87;3.60;;;8.00;99.90;;;;;;5039285;28;20447;-71
2023/12/27 09:39:22;;;;;;;4.83;2.80;;;8.00;99.90;;;;;;5039325;28;20186;-72
2023/12/27 09:41:48;;;;;;;6.80;3.30;;;8.10;99.90;;;;;;5036831;28;20190;-72
2023/12/27 09:44:18;;;;;;;5.53;2.77;;;8.10;99.90;;;;;;5039516;28;20276;-71
2023/12/27 09:46:44;;;;;;;5.40;3.10;;;8.10;99.90;;;;;;5036829;28;20492;-72
2023/12/27 09:49:12;;;;;;;3.30;2.77;;;8.10;99.90;;;;;;5039598;28;20428;-71
2023/12/27 09:51:39;;;;;;;5.43;3.10;;;8.10;99.90;;;;;;5036845;28;20963;-71
2023/12/27 09:54:05;;;;;;;4.20;2.90;;;8.10;99.90;;;;;;5038748;28;20510;-70
2023/12/27 09:56:35;;;;;;;3.93;3.07;;;8.20;99.90;;;;;;5036623;28;20555;-71
2023/12/27 09:59:06;;;;;;;8.37;2.87;;;8.20;99.90;;;;;;5038781;28;20460;-71
2023/12/27 10:01:37;;;;;;;4.63;2.80;;;8.20;99.90;;;;;;5037248;28;20452;-71
2023/12/27 10:04:11;;;;;;;4.30;3.07;;;8.20;99.90;;;;;;5039180;28;20413;-72
2023/12/27 10:06:37;;;;;;;2.67;2.30;;;8.20;99.90;;;;;;5035544;28;20464;-74
2023/12/27 10:09:03;;;;;;;3.50;2.80;;;8.30;99.90;;;;;;5038849;28;20911;-72
2023/12/27 10:11:30;;;;;;;2.93;2.63;;;8.20;99.90;;;;;;5036778;28;20656;-70
2023/12/27 10:13:56;;;;;;;4.40;2.67;;;8.20;99.90;;;;;;5039048;28;20460;-72
2023/12/27 10:16:22;;;;;;;4.70;2.80;;;8.20;99.90;;;;;;5037748;28;20555;-71
2023/12/27 10:18:47;;;;;;;4.80;2.93;;;8.30;99.90;;;;;;5037705;28;21032;-73
2023/12/27 10:21:15;;;;;;;3.30;2.43;;;8.30;99.90;;;;;;5037503;28;20295;-71
2023/12/27 10:23:40;;;;;;;3.27;2.67;;;8.30;99.90;;;;;;5039414;28;20627;-73
2023/12/27 10:26:06;;;;;;;4.27;3.17;;;8.30;99.90;;;;;;5039346;28;20531;-72
2023/12/27 10:28:33;;;;;;;3.20;2.03;;;8.30;99.90;;;;;;5039543;28;20557;-74
2023/12/27 10:30:58;;;;;;;5.03;2.80;;;8.30;99.90;;;;;;5038076;28;20547;-74
2023/12/27 10:33:24;;;;;;;2.70;2.20;;;8.40;99.90;;;;;;5039826;28;20549;-71
2023/12/27 10:35:50;;;;;;;5.67;2.33;;;8.40;99.90;;;;;;5039814;28;20271;-70
2023/12/27 10:38:16;;;;;;;3.80;2.70;;;8.40;99.90;;;;;;5041081;28;20649;-71
2023/12/27 10:40:42;;;;;;;3.30;2.63;;;8.40;99.90;;;;;;5039610;28;20432;-72
2023/12/27 10:43:08;;;;;;;2.80;2.50;;;8.40;99.90;;;;;;5040850;28;20190;-71
2023/12/27 10:45:35;;;;;;;2.50;2.07;;;8.40;99.90;;;;;;5038027;28;20817;-71
2023/12/27 10:48:04;;;;;;;3.00;2.30;;;8.50;99.90;;;;;;5041097;28;20436;-73
2023/12/27 10:50:31;;;;;;;3.67;2.70;;;8.50;99.90;;;;;;5038648;28;20432;-72
2023/12/27 10:53:06;;;;;;;3.27;2.50;;;8.50;99.90;;;;;;5040314;28;20460;-71
2023/12/27 10:55:33;;;;;;;3.93;2.37;;;8.50;99.90;;;;;;5038981;28;20470;-71
2023/12/27 10:58:01;;;;;;;2.20;2.00;;;8.50;99.90;;;;;;5039130;28;20436;-72
2023/12/27 11:00:31;;;;;;;3.40;2.30;;;8.60;99.90;;;;;;5039665;28;20509;-70
2023/12/27 11:03:00;;;;;;;2.13;1.90;;;8.60;99.90;;;;;;5040565;28;20436;-73
2023/12/27 11:05:27;;;;;;;3.97;2.23;;;8.60;99.90;;;;;;5038050;28;20603;-70
2023/12/27 11:07:54;;;;;;;3.93;2.07;;;8.60;99.90;;;;;;5039507;28;20535;-71
2023/12/27 11:10:21;;;;;;;2.80;2.60;;;8.60;99.90;;;;;;5038948;28;20440;-72
2023/12/27 11:12:48;;;;;;;2.73;2.10;;;8.60;99.90;;;;;;5040357;28;20436;-71
2023/12/27 11:15:14;;;;;;;2.13;1.93;;;8.60;99.90;;;;;;5040761;28;21080;-72
2023/12/27 11:17:41;;;;;;;2.60;2.37;;;8.70;99.90;;;;;;5048116;28;20431;-72
2023/12/27 11:20:11;;;;;;;3.03;2.20;;;8.70;99.90;;;;;;5041862;28;20434;-71
2023/12/27 11:22:38;;;;;;;2.10;1.80;;;8.70;99.90;;;;;;5039615;28;20421;-71
2023/12/27 11:25:05;;;;;;;2.40;1.83;;;8.70;99.90;;;;;;5041876;28;20447;-71
2023/12/27 11:27:31;;;;;;;2.77;1.97;;;8.70;99.90;;;;;;5039804;28;20436;-72
2023/12/27 11:29:57;;;;;;;2.23;2.03;;;8.80;99.90;;;;;;5041732;28;20563;-71
2023/12/27 11:32:28;;;;;;;1.70;1.60;;;8.80;99.90;;;;;;5040140;28;20432;-72
2023/12/27 11:34:55;;;;;;;2.73;1.87;;;8.80;99.90;;;;;;5040869;28;20885;-73
2023/12/27 11:37:22;;;;;;;2.33;2.00;;;8.80;99.90;;;;;;5040449;28;20491;-71
2023/12/27 11:39:52;;;;;;;2.67;1.90;;;8.80;99.90;;;;;;5039126;28;20797;-73
2023/12/27 11:42:19;;;;;;;1.73;1.47;;;8.80;99.90;;;;;;5041150;28;20515;-72
2023/12/27 11:44:48;;;;;;;3.00;2.10;;;8.80;99.90;;;;;;5038291;28;20431;-71
2023/12/27 11:47:19;;;;;;;2.10;1.90;;;8.90;99.90;;;;;;5038186;28;20436;-72
2023/12/27 11:50:14;;;;;;;1.53;1.40;;;8.90;99.90;;;;;;5071014;28;20451;-69
2023/12/27 11:52:46;;;;;;;2.67;1.70;;;8.90;99.90;;;;;;5031626;28;20448;-71
2023/12/27 11:55:18;;;;;;;4.23;3.23;;;8.90;99.90;;;;;;5050272;28;20480;-70
2023/12/27 11:57:44;;;;;;;1.50;1.37;;;8.90;99.90;;;;;;5036635;28;20450;-72
2023/12/27 12:00:22;;;;;;;2.20;1.87;;;8.90;99.90;;;;;;5037696;28;20443;-72
2023/12/27 12:02:58;;;;;;;2.03;1.80;;;9.00;99.90;;;;;;5042551;28;20425;-71
2023/12/27 12:05:51;;;;;;;1.80;1.70;;;9.00;99.90;;;;;;5039246;28;20435;-70
2023/12/27 12:08:30;;;;;;;2.90;1.80;;;9.00;99.90;;;;;;5038644;28;20468;-70
2023/12/27 12:11:11;;;;;;;2.17;1.60;;;9.00;99.90;;;;;;5041492;28;20514;-72
2023/12/27 12:13:40;;;;;;;2.43;1.60;;;9.00;99.90;;;;;;5036809;28;20433;-72
2023/12/27 12:16:07;;;;;;;2.80;1.60;;;9.00;99.90;;;;;;5038960;28;20487;-69
2023/12/27 12:18:39;;;;;;;1.43;1.33;;;9.00;99.90;;;;;;5042620;28;20432;-72
2023/12/27 12:21:05;;;;;;;1.97;1.30;;;9.00;99.90;;;;;;5040714;28;20824;-70
2023/12/27 12:23:33;;;;;;;2.10;1.47;;;9.00;99.90;;;;;;5031791;28;20502;-70
2023/12/27 12:26:00;;;;;;;2.37;1.73;;;9.00;99.90;;;;;;5034283;28;20194;-72
2023/12/27 12:28:29;;;;;;;2.23;1.40;;;9.00;99.90;;;;;;5041651;28;20464;-70
2023/12/27 12:30:56;;;;;;;2.90;1.60;;;9.00;99.90;;;;;;5041589;28;20782;-71
2023/12/27 12:33:22;;;;;;;1.70;1.43;;;9.00;99.90;;;;;;5042698;28;20950;-71
2023/12/27 12:35:50;;;;;;;1.70;1.50;;;9.10;99.90;;;;;;5041831;28;21118;-71
2023/12/27 12:38:18;;;;;;;1.20;1.10;;;9.10;99.90;;;;;;5042607;28;20641;-71
2023/12/27 12:40:44;;;;;;;2.03;1.40;;;9.10;99.90;;;;;;5040782;28;20445;-71
2023/12/27 12:43:10;;;;;;;2.67;1.63;;;9.00;99.90;;;;;;5041244;28;20428;-71
2023/12/27 12:45:37;;;;;;;1.47;1.37;;;9.10;99.90;;;;;;5040855;28;20499;-71
2023/12/27 12:48:04;;;;;;;1.73;0.90;;;9.10;99.90;;;;;;5041082;28;20436;-70
2023/12/27 12:50:29;;;;;;;1.43;1.33;;;9.00;99.90;;;;;;5039678;28;20448;-70
2023/12/27 12:52:55;;;;;;;1.50;1.40;;;9.10;99.90;;;;;;5040428;28;20927;-72